ENSK Airport Information

Runway Information
Runway 09 Length 2848 ft width 0 ft
Elevation 8 ft Threshold 0 ft Heading 0
Runway 27 Length 2848 ft Width 0 ft
Elevation 11 ft Threshold 0 ft Heading 0
Airport Frequencies
Airport Navaids
Type VOR-DME Name Skagen Frequency 112800 KHZ
Airport Weather Information & NOTAM
ADDS - METARS form results

(1651 UTC 18 October 2018)
Data provider http://aviationweather.gov/metar/data/
 
METAR text: ENSK 181620Z 25019KT 5000 RA FEW008 BKN025 09/06 Q0997
Conditions at: ENSK (STORKMARKNES/SKA, NO) observed 1620 UTC 18 October 2018
Temperature: 9.0°C (48°F)
Dewpoint: 6.0°C (43°F) [RH = 81%]
Pressure (altimeter): 29.44 inches Hg (997.0 mb)
Winds: from the WSW (250 degrees) at 22 MPH (19 knots; 9.8 m/s)
Visibility: 3 miles ( 5 km)
Ceiling: 2500 feet AGL
Clouds: few clouds at 800 feet AGL
broken clouds at 2500 feet AGL
Weather: RA  (moderate rain)